sensor_id;sensor_type;location;lat;lon;timestamp;pressure;altitude;pressure_sealevel;temperature;humidity
55858;BME280;41779;52.360;31.026;2023-05-07T06:36:33;1037.7;;;7.5;44.3
55858;BME280;41779;52.360;31.026;2023-05-07T06:42:07;1038.4;;;13.8;29.1
55858;BME280;41779;52.360;31.026;2023-05-07T06:46:56;1038.4;;;14.3;28.6
55858;BME280;41779;52.360;31.026;2023-05-07T06:51:35;1038.4;;;14.8;28.2
55858;BME280;41779;52.360;31.026;2023-05-07T06:56:35;1038.3;;;15.5;27.9
55858;BME280;41779;52.360;31.026;2023-05-07T07:01:49;1038.3;;;16.1;28
55858;BME280;41779;52.360;31.026;2023-05-07T07:06:41;1038.2;;;16.6;27.5
55858;BME280;41779;52.360;31.026;2023-05-07T07:11:59;1038.1;;;17;26.3
55858;BME280;41779;52.360;31.026;2023-05-07T07:16:49;1038.1;;;17;25.4
55858;BME280;41779;52.360;31.026;2023-05-07T07:21:23;1038.2;;;17;25.3
55858;BME280;41779;52.360;31.026;2023-05-07T07:27:09;1038.1;;;17.1;25.8
55858;BME280;41779;52.360;31.026;2023-05-07T07:32:09;1038.2;;;17.4;25.6
55858;BME280;41779;52.360;31.026;2023-05-07T07:36:29;1038.2;;;17.7;25.8
55858;BME280;41779;52.360;31.026;2023-05-07T07:41:23;1038.1;;;18;25.2
55858;BME280;41779;52.360;31.026;2023-05-07T07:46:23;1038.2;;;18.1;23.9
55858;BME280;41779;52.360;31.026;2023-05-07T07:52:09;1038.1;;;18.5;23.5
55858;BME280;41779;52.360;31.026;2023-05-07T07:56:43;1038.1;;;18.5;22.8
55858;BME280;41779;52.360;31.026;2023-05-07T08:01:33;1038.1;;;18.2;23.3
55858;BME280;41779;52.360;31.026;2023-05-07T08:06:55;1038.1;;;18;23.9
55858;BME280;41779;52.360;31.026;2023-05-07T08:11:35;1038;;;18.3;24.2
55858;BME280;41779;52.360;31.026;2023-05-07T08:16:42;1038;;;18.6;22.9
55858;BME280;41779;52.360;31.026;2023-05-07T08:21:41;1038;;;18.8;22.6
55858;BME280;41779;52.360;31.026;2023-05-07T08:27:06;1037.9;;;18.9;21.8
55858;BME280;41779;52.360;31.026;2023-05-07T08:31:23;1037.9;;;19.1;22.2
55858;BME280;41779;52.360;31.026;2023-05-07T08:37:09;1037.8;;;19.3;22.3
55858;BME280;41779;52.360;31.026;2023-05-07T08:42:09;1037.7;;;19.5;22.3
55858;BME280;41779;52.360;31.026;2023-05-07T08:46:23;1037.7;;;19.7;21.7
55858;BME280;41779;52.360;31.026;2023-05-07T08:51:23;1037.7;;;19.5;20.7
55858;BME280;41779;52.360;31.026;2023-05-07T08:56:57;1037.7;;;19.3;20.4
55858;BME280;41779;52.360;31.026;2023-05-07T09:01:51;1037.6;;;19.4;21.2
55858;BME280;41779;52.360;31.026;2023-05-07T09:07:01;1037.6;;;19.6;21.1
55858;BME280;41779;52.360;31.026;2023-05-07T09:11:54;1037.6;;;19.7;21.4
55858;BME280;41779;52.360;31.026;2023-05-07T09:17:07;1037.6;;;19.6;21.1
55858;BME280;41779;52.360;31.026;2023-05-07T09:21:57;1037.6;;;19.4;20.7
55858;BME280;41779;52.360;31.026;2023-05-07T09:26:37;1037.6;;;19.3;20.4
55858;BME280;41779;52.360;31.026;2023-05-07T09:31:36;1037.6;;;19.4;21
55858;BME280;41779;52.360;31.026;2023-05-07T09:37:08;1037.6;;;19.6;21.3
55858;BME280;41779;52.360;31.026;2023-05-07T09:41:21;1037.6;;;19.6;21.1
55858;BME280;41779;52.360;31.026;2023-05-07T09:46:57;1037.5;;;19.7;21.3
55858;BME280;41779;52.360;31.026;2023-05-07T09:51:58;1037.5;;;19.7;21
55858;BME280;41779;52.360;31.026;2023-05-07T09:56:23;1037.6;;;19.3;20
55858;BME280;41779;52.360;31.026;2023-05-07T10:01:52;1037.5;;;19;20.5
55858;BME280;41779;52.360;31.026;2023-05-07T10:06:24;1037.4;;;19.1;21
55858;BME280;41779;52.360;31.026;2023-05-07T10:11:23;1037.4;;;19;21.2
55858;BME280;41779;52.360;31.026;2023-05-07T10:17:00;1037.4;;;19.1;21.3
55858;BME280;41779;52.360;31.026;2023-05-07T10:22:03;1037.3;;;19.4;21.4
55858;BME280;41779;52.360;31.026;2023-05-07T10:26:36;1037.2;;;19.7;20.8
55858;BME280;41779;52.360;31.026;2023-05-07T10:31:54;1037.1;;;19.8;20.7
55858;BME280;41779;52.360;31.026;2023-05-07T10:37:02;1037.1;;;19.9;21
55858;BME280;41779;52.360;31.026;2023-05-07T10:42:10;1037.1;;;19.9;20.8
55858;BME280;41779;52.360;31.026;2023-05-07T10:46:22;1037.2;;;19.7;20.7
55858;BME280;41779;52.360;31.026;2023-05-07T10:52:14;1037.1;;;19.6;20.4
55858;BME280;41779;52.360;31.026;2023-05-07T10:57:41;1037;;;19.7;20.7
55858;BME280;41779;52.360;31.026;2023-05-07T11:01:52;1037;;;19.5;20.2
55858;BME280;41779;52.360;31.026;2023-05-07T11:06:30;1037.1;;;19.3;21
55858;BME280;41779;52.360;31.026;2023-05-07T11:12:10;1037.1;;;19.4;21.1
55858;BME280;41779;52.360;31.026;2023-05-07T11:17:02;1037.1;;;19.6;21.4
55858;BME280;41779;52.360;31.026;2023-05-07T11:21:31;1037;;;19.6;21.1
55858;BME280;41779;52.360;31.026;2023-05-07T11:26:43;1036.9;;;19.6;20.9
55858;BME280;41779;52.360;31.026;2023-05-07T11:32:10;1037;;;19.4;20.7
55858;BME280;41779;52.360;31.026;2023-05-07T11:36:37;1037;;;19.3;21
55858;BME280;41779;52.360;31.026;2023-05-07T11:41:58;1037;;;19.1;21.4
55858;BME280;41779;52.360;31.026;2023-05-07T11:47:10;1036.8;;;19.1;21.9
55858;BME280;41779;52.360;31.026;2023-05-07T11:51:24;1036.8;;;19.2;21.4
55858;BME280;41779;52.360;31.026;2023-05-07T11:56:24;1036.8;;;19;20.5
55858;BME280;41779;52.360;31.026;2023-05-07T12:01:36;1036.8;;;18.5;20.6
55858;BME280;41779;52.360;31.026;2023-05-07T12:06:24;1036.8;;;18.2;21
55858;BME280;41779;52.360;31.026;2023-05-07T12:12:03;1036.8;;;18.2;21.9
55858;BME280;41779;52.360;31.026;2023-05-07T12:16:50;1036.8;;;18.2;22.1
55858;BME280;41779;52.360;31.026;2023-05-07T12:21:34;1036.7;;;18.2;22
55858;BME280;41779;52.360;31.026;2023-05-07T12:26:56;1036.8;;;18.1;21.8
55858;BME280;41779;52.360;31.026;2023-05-07T12:32:12;1036.8;;;18.2;22
55858;BME280;41779;52.360;31.026;2023-05-07T12:36:42;1036.8;;;18.3;21.7
55858;BME280;41779;52.360;31.026;2023-05-07T12:41:35;1036.8;;;18.2;21.6
55858;BME280;41779;52.360;31.026;2023-05-07T12:46:38;1036.8;;;18.2;21.7
55858;BME280;41779;52.360;31.026;2023-05-07T12:52:10;1036.8;;;18.1;21.7
55858;BME280;41779;52.360;31.026;2023-05-07T12:56:44;1036.8;;;17.9;21.9
55858;BME280;41779;52.360;31.026;2023-05-07T13:01:28;1036.8;;;18;22.6
55858;BME280;41779;52.360;31.026;2023-05-07T13:07:10;1036.8;;;18;22.5
55858;BME280;41779;52.360;31.026;2023-05-07T13:11:38;1036.8;;;17.9;22.1
55858;BME280;41779;52.360;31.026;2023-05-07T13:16:36;1036.7;;;17.8;22.1
55858;BME280;41779;52.360;31.026;2023-05-07T13:21:42;1036.6;;;17.7;22.3
55858;BME280;41779;52.360;31.026;2023-05-07T13:27:10;1036.6;;;17.6;22.7
55858;BME280;41779;52.360;31.026;2023-05-07T13:31:36;1036.6;;;17.5;22.4
55858;BME280;41779;52.360;31.026;2023-05-07T13:37:10;1036.6;;;17.3;22
55858;BME280;41779;52.360;31.026;2023-05-07T13:41:58;1036.6;;;17.3;23.1
55858;BME280;41779;52.360;31.026;2023-05-07T13:46:24;1036.5;;;17.5;22.8
55858;BME280;41779;52.360;31.026;2023-05-07T13:51:46;1036.6;;;17.7;22.4
55858;BME280;41779;52.360;31.026;2023-05-07T13:56:58;1036.6;;;17.7;22.8
55858;BME280;41779;52.360;31.026;2023-05-07T14:01:56;1036.5;;;17.8;23.1
55858;BME280;41779;52.360;31.026;2023-05-07T14:07:02;1036.5;;;17.7;23.2
55858;BME280;41779;52.360;31.026;2023-05-07T14:11:24;1036.4;;;17.6;23.8
55858;BME280;41779;52.360;31.026;2023-05-07T14:16:56;1036.5;;;17.5;23.3
55858;BME280;41779;52.360;31.026;2023-05-07T14:22:12;1036.5;;;17.2;22.8
55858;BME280;41779;52.360;31.026;2023-05-07T14:26:24;1036.5;;;17;22.9
55858;BME280;41779;52.360;31.026;2023-05-07T14:31:36;1036.5;;;16.9;23.2
55858;BME280;41779;52.360;31.026;2023-05-07T14:36:54;1036.5;;;16.8;23.7
55858;BME280;41779;52.360;31.026;2023-05-07T14:41:34;1036.5;;;16.9;23.9
55858;BME280;41779;52.360;31.026;2023-05-07T14:46:58;1036.5;;;16.9;24.3
55858;BME280;41779;52.360;31.026;2023-05-07T14:51:58;1036.5;;;16.8;24.3
55858;BME280;41779;52.360;31.026;2023-05-07T14:56:24;1036.5;;;16.7;24.3
55858;BME280;41779;52.360;31.026;2023-05-07T15:01:25;1036.5;;;16.5;24.5
55858;BME280;41779;52.360;31.026;2023-05-07T15:06:48;1036.5;;;16.4;24.6
55858;BME280;41779;52.360;31.026;2023-05-07T15:11:34;1036.5;;;16.4;25.2
55858;BME280;41779;52.360;31.026;2023-05-07T15:17:00;1036.5;;;16.3;24.8
55858;BME280;41779;52.360;31.026;2023-05-07T15:21:46;1036.5;;;16.3;24.9
55858;BME280;41779;52.360;31.026;2023-05-07T15:26:40;1036.5;;;16.2;25.2
55858;BME280;41779;52.360;31.026;2023-05-07T15:31:54;1036.5;;;16.2;25.3
55858;BME280;41779;52.360;31.026;2023-05-07T15:37:08;1036.5;;;16.1;25.2
55858;BME280;41779;52.360;31.026;2023-05-07T15:41:42;1036.5;;;16;25.4
55858;BME280;41779;52.360;31.026;2023-05-07T15:46:24;1036.5;;;16;25.7
55858;BME280;41779;52.360;31.026;2023-05-07T15:51:24;1036.6;;;16;25.7
55858;BME280;41779;52.360;31.026;2023-05-07T15:57:10;1036.6;;;16;25.4
55858;BME280;41779;52.360;31.026;2023-05-07T16:01:46;1036.6;;;15.9;25.6
55858;BME280;41779;52.360;31.026;2023-05-07T16:06:58;1036.7;;;15.9;25.6
55858;BME280;41779;52.360;31.026;2023-05-07T16:12:10;1036.7;;;15.9;26.1
55858;BME280;41779;52.360;31.026;2023-05-07T16:16:24;1036.8;;;15.8;25.7
55858;BME280;41779;52.360;31.026;2023-05-07T16:21:34;1036.8;;;15.7;25.8
55858;BME280;41779;52.360;31.026;2023-05-07T16:26:42;1036.9;;;15.5;25.5
55858;BME280;41779;52.360;31.026;2023-05-07T16:32:10;1036.9;;;15.4;25.9
55858;BME280;41779;52.360;31.026;2023-05-07T16:36:48;1037;;;15.4;26.3
55858;BME280;41779;52.360;31.026;2023-05-07T16:42:10;1037;;;15.3;26.6
55858;BME280;41779;52.360;31.026;2023-05-07T16:47:10;1037.1;;;15.2;26.2
55858;BME280;41779;52.360;31.026;2023-05-07T16:51:24;1037.1;;;15.1;26.9
55858;BME280;41779;52.360;31.026;2023-05-07T16:56:36;1037.2;;;15.1;26.7
55858;BME280;41779;52.360;31.026;2023-05-07T17:02:00;1037.2;;;15;26.9
55858;BME280;41779;52.360;31.026;2023-05-07T17:06:56;1037.2;;;14.9;26.9
55858;BME280;41779;52.360;31.026;2023-05-07T17:11:36;1037.2;;;14.7;27.4
55858;BME280;41779;52.360;31.026;2023-05-07T17:16:38;1037.3;;;14.6;28
55858;BME280;41779;52.360;31.026;2023-05-07T17:22:12;1037.3;;;14.5;28.3
55858;BME280;41779;52.360;31.026;2023-05-07T17:26:54;1037.4;;;14.4;28.3
55858;BME280;41779;52.360;31.026;2023-05-07T17:31:34;1037.4;;;14.3;28.2
55858;BME280;41779;52.360;31.026;2023-05-07T17:36:42;1037.4;;;14.2;28.2
55858;BME280;41779;52.360;31.026;2023-05-07T17:42:10;1037.5;;;14.1;28.8
55858;BME280;41779;52.360;31.026;2023-05-07T17:46:36;1037.5;;;13.9;29.1
55858;BME280;41779;52.360;31.026;2023-05-07T17:52:10;1037.5;;;13.8;29.5
55858;BME280;41779;52.360;31.026;2023-05-07T17:56:58;1037.6;;;13.7;29.5
55858;BME280;41779;52.360;31.026;2023-05-07T18:01:34;1037.7;;;13.6;29.5
55858;BME280;41779;52.360;31.026;2023-05-07T18:06:54;1037.7;;;13.4;29.9
55858;BME280;41779;52.360;31.026;2023-05-07T18:11:36;1037.8;;;13.3;30.2
55858;BME280;41779;52.360;31.026;2023-05-07T18:16:42;1037.8;;;13.2;31.3
55858;BME280;41779;52.360;31.026;2023-05-07T18:21:50;1037.8;;;13.1;31.5
55858;BME280;41779;52.360;31.026;2023-05-07T18:27:10;1037.8;;;13;31.2
55858;BME280;41779;52.360;31.026;2023-05-07T18:31:50;1037.9;;;12.8;31.2
55858;BME280;41779;52.360;31.026;2023-05-07T18:36:44;1037.9;;;12.7;31.4
55858;BME280;41779;52.360;31.026;2023-05-07T18:41:52;1037.9;;;12.6;32
55858;BME280;41779;52.360;31.026;2023-05-07T18:46:58;1037.9;;;12.5;32.3
55858;BME280;41779;52.360;31.026;2023-05-07T18:51:47;1038;;;12.4;32.5
55858;BME280;41779;52.360;31.026;2023-05-07T18:56:56;1038;;;12.3;32.6
55858;BME280;41779;52.360;31.026;2023-05-07T19:02:12;1038;;;12.2;33
55858;BME280;41779;52.360;31.026;2023-05-07T19:07:12;1038.1;;;12.1;33.9
55858;BME280;41779;52.360;31.026;2023-05-07T19:11:24;1038.1;;;12;33.9
55858;BME280;41779;52.360;31.026;2023-05-07T19:17:12;1038.2;;;11.9;33.5
55858;BME280;41779;52.360;31.026;2023-05-07T19:21:50;1038.1;;;11.8;33.7
55858;BME280;41779;52.360;31.026;2023-05-07T19:26:32;1038.2;;;11.7;35.2
55858;BME280;41779;52.360;31.026;2023-05-07T19:31:42;1038.2;;;11.7;36.8
55858;BME280;41779;52.360;31.026;2023-05-07T19:37:10;1038.2;;;11.6;36.6
55858;BME280;41779;52.360;31.026;2023-05-07T19:41:38;1038.2;;;11.6;36.5
55858;BME280;41779;52.360;31.026;2023-05-07T19:47:10;1038.2;;;11.5;36.7
55858;BME280;41779;52.360;31.026;2023-05-07T19:52:10;1038.2;;;11.3;38.1
55858;BME280;41779;52.360;31.026;2023-05-07T19:56:34;1038.3;;;11.2;38.9
55858;BME280;41779;52.360;31.026;2023-05-07T20:01:46;1038.4;;;11.1;38.5
55858;BME280;41779;52.360;31.026;2023-05-07T20:06:58;1038.4;;;11;37.9
55858;BME280;41779;52.360;31.026;2023-05-07T20:11:54;1038.4;;;10.9;38.7
55858;BME280;41779;52.360;31.026;2023-05-07T20:17:02;1038.4;;;10.7;39.8
55858;BME280;41779;52.360;31.026;2023-05-07T20:21:50;1038.5;;;10.7;39.9
55858;BME280;41779;52.360;31.026;2023-05-07T20:27:08;1038.5;;;10.6;39.5
55858;BME280;41779;52.360;31.026;2023-05-07T20:31:32;1038.6;;;10.6;39.4
55858;BME280;41779;52.360;31.026;2023-05-07T20:37:12;1038.6;;;10.4;40.5
55858;BME280;41779;52.360;31.026;2023-05-07T20:41:24;1038.6;;;10.3;40.9
55858;BME280;41779;52.360;31.026;2023-05-07T20:47:10;1038.6;;;10.3;40.4
55858;BME280;41779;52.360;31.026;2023-05-07T20:51:24;1038.6;;;10.2;39.9
55858;BME280;41779;52.360;31.026;2023-05-07T20:56:58;1038.7;;;10.2;39.6
55858;BME280;41779;52.360;31.026;2023-05-07T21:01:58;1038.7;;;10.2;40
55858;BME280;41779;52.360;31.026;2023-05-07T21:06:46;1038.7;;;10.3;39.8
55858;BME280;41779;52.360;31.026;2023-05-07T21:11:54;1038.7;;;10.3;39.5
55858;BME280;41779;52.360;31.026;2023-05-07T21:16:50;1038.7;;;10.3;39.6
55858;BME280;41779;52.360;31.026;2023-05-07T21:21:24;1038.7;;;10.3;39.8
55858;BME280;41779;52.360;31.026;2023-05-07T21:27:10;1038.8;;;10.2;40.1
55858;BME280;41779;52.360;31.026;2023-05-07T21:32:02;1038.9;;;10.2;39.8
55858;BME280;41779;52.360;31.026;2023-05-07T21:36:36;1038.9;;;10.2;39.7
55858;BME280;41779;52.360;31.026;2023-05-07T21:41:54;1038.9;;;10.2;39.6
55858;BME280;41779;52.360;31.026;2023-05-07T21:47:02;1038.9;;;10.2;39.4
55858;BME280;41779;52.360;31.026;2023-05-07T21:51:56;1038.9;;;10.2;39.8
55858;BME280;41779;52.360;31.026;2023-05-07T21:56:24;1039;;;10.2;39.7
55858;BME280;41779;52.360;31.026;2023-05-07T22:01:58;1039;;;10.2;39.4
55858;BME280;41779;52.360;31.026;2023-05-07T22:07:08;1039;;;10.2;39.6
55858;BME280;41779;52.360;31.026;2023-05-07T22:12:10;1039;;;10.2;40
55858;BME280;41779;52.360;31.026;2023-05-07T22:16:40;1039.1;;;10.1;40.3
55858;BME280;41779;52.360;31.026;2023-05-07T22:22:08;1039.1;;;10.1;40
55858;BME280;41779;52.360;31.026;2023-05-07T22:27:02;1039.1;;;10;39.9
55858;BME280;41779;52.360;31.026;2023-05-07T22:31:36;1039.1;;;10;40.4
55858;BME280;41779;52.360;31.026;2023-05-07T22:36:30;1039.1;;;9.9;41
55858;BME280;41779;52.360;31.026;2023-05-07T22:42:08;1039.1;;;9.8;41
55858;BME280;41779;52.360;31.026;2023-05-07T22:46:24;1039.1;;;9.8;41
55858;BME280;41779;52.360;31.026;2023-05-07T22:52:10;1039.1;;;9.7;40.9
55858;BME280;41779;52.360;31.026;2023-05-07T22:57:10;1039.1;;;9.7;40.9
55858;BME280;41779;52.360;31.026;2023-05-07T23:01:36;1039.1;;;9.6;41.3
55858;BME280;41779;52.360;31.026;2023-05-07T23:06:46;1039;;;9.5;41.4
55858;BME280;41779;52.360;31.026;2023-05-07T23:11:50;1039;;;9.5;41.4
55858;BME280;41779;52.360;31.026;2023-05-07T23:16:24;1039;;;9.4;41.4
55858;BME280;41779;52.360;31.026;2023-05-07T23:22:02;1039;;;9.3;41.8
55858;BME280;41779;52.360;31.026;2023-05-07T23:26:50;1039;;;9.3;42.3
55858;BME280;41779;52.360;31.026;2023-05-07T23:31:42;1038.9;;;9.2;41.9
55858;BME280;41779;52.360;31.026;2023-05-07T23:37:12;1039;;;9.1;42
55858;BME280;41779;52.360;31.026;2023-05-07T23:41:38;1039;;;9;42
55858;BME280;41779;52.360;31.026;2023-05-07T23:47:00;1039;;;9;42.6
55858;BME280;41779;52.360;31.026;2023-05-07T23:52:12;1039;;;8.9;43
55858;BME280;41779;52.360;31.026;2023-05-07T23:56:24;1039;;;8.8;42.6
